SBOSBO CUN / MMUN
Speedbird OnlineSpeedbird Online CUN / MMUN

Cancún International Airport
17:21 31°C

Location Cancun, Mexico
Latitude: 21.036500930800003
Longitude: -86.8770980835
Local Time 17:21 on 20 May 2024
UTC -5 hours (America/Cancun)
Currency £1 equals MXN 21.08
METAR MMUN 202149Z 15012KT 7SM FEW015 31/24 A2981 RMK 8/100 HZY FU
TAF TAF MMUN 201640Z 2018/2118 14015KT P6SM SCT015 TX33/2019Z TN28/2109Z TEMPO 2018/2022 BKN015
Weather As Of 20 May 2024 17:21
Description Smoke
Wind 22 km/h from South-East (150°)
Cloud Cover 20%
Precipitation Rain: none, Snow: none
Sunrise 06:07
Sunset 19:20
NOTAM 10 active NOTAM
Rotations During the last 90 days there were
80 flights from LGW
82 flights to LGW
Lounges The Lounge, 3
Mera Business Lounge , Terminal 3, Departure level
Web Airport Website | Wikipedia
Codes IATA: CUN
ICAO: MMUN
Altitude 7 Meter / 22 Feet
Distance 7,990 KM / 4,965 Miles
from London.
Runways
RunwayLength (m)Surface
12L2800Asphalt
12R3500Asphalt
30L3500Asphalt
30R2800Asphalt
Radio
TypeDescriptionFrequency
APPAPP120.4
ARRARR120.4
ATISATIS127.7
CLDCLNC DEL122.1
DEPDEP119.8
GNDGND121.7
TWR NorthTower North118.1
TWR STower South118.6
Live ATC



Support Speedbird Online

© 2017-2024 Speedbird Online